Explore Kentucky Lake

Lake Conditions
Facebook Twitter Instagram Google YouTube Contact Us About Us
Switch Mobile/Desktop

Previous Lake Barkley Levels

Home | Lake Conditions | Previous Lake Barkley Levels

Lake Barkley Stages Over Last 48 Hours

The following table shows the previous 48 hours for Lake Barkley.

Date/Time Lake River Discharge (cfs)
1/20/2019 10 PM CST 354.60' 326.10' 91,000
1/20/2019 9 PM CST 354.60' 325.80' 90,500
1/20/2019 8 PM CST 354.60' 325.60' 91,000
1/20/2019 7 PM CST 354.60' 325.30' 91,000
1/20/2019 6 PM CST 354.60' 324.60' 83,900
1/20/2019 5 PM CST 354.60' 324.30' 81,000
1/20/2019 4 PM CST 354.55' 323.85' 77,200
1/20/2019 3 PM CST 354.55' 323.45' 71,600
1/20/2019 2 PM CST 354.50' 323.50' 70,600
1/20/2019 1 PM CST 354.45' 323.45' 72,100
1/20/2019 12 PM CST 354.35' 323.35' 71,700
1/20/2019 11 AM CST 354.30' 323.30' 71,300
1/20/2019 10 AM CST 354.20' 323.40' 71,300
1/20/2019 9 AM CST 354.20' 323.40' 71,600
1/20/2019 8 AM CST 354.05' 323.35' 70,500
1/20/2019 7 AM CST 354.00' 323.30' 71,700
1/20/2019 6 AM CST 353.90' 323.30' 71,100
1/20/2019 5 AM CST 353.80' 323.30' 70,800
1/20/2019 4 AM CST 353.75' 323.25' 70,800
1/20/2019 3 AM CST 353.70' 323.30' 70,500
1/20/2019 2 AM CST 353.60' 323.30' 70,300
1/20/2019 1 AM CST 353.55' 323.25' 70,300
1/20/2019 12 AM CST 353.55' 323.25' 70,100
1/19/2019 11 PM CST 353.55' 323.25' 70,100
1/19/2019 10 PM CST 353.55' 323.25' 69,600
1/19/2019 9 PM CST 353.55' 323.25' 70,100
1/19/2019 8 PM CST 353.55' 323.25' 70,300
1/19/2019 7 PM CST 353.55' 323.25' 70,300
1/19/2019 6 PM CST 353.50' 323.30' 70,400
1/19/2019 5 PM CST 353.50' 323.30' 70,400
1/19/2019 4 PM CST 353.70' 323.10' 70,300
1/19/2019 3 PM CST 353.70' 323.00' 70,900
1/19/2019 2 PM CST 353.80' 322.90' 69,100
1/19/2019 1 PM CST 353.80' 322.60' 67,800
1/19/2019 12 PM CST 353.90' 322.50' 67,900
1/19/2019 11 AM CST 354.00' 322.30' 68,200
1/19/2019 10 AM CST 354.00' 322.20' 68,200
1/19/2019 9 AM CST 354.00' 322.20' 68,200
1/19/2019 8 AM CST 354.00' 322.10' 68,100
1/19/2019 7 AM CST 354.00' 322.10' 68,100
1/19/2019 6 AM CST 354.05' 322.05' 68,700
1/19/2019 5 AM CST 354.00' 322.00' 68,300
1/19/2019 4 AM CST 354.00' 322.00' 68,300
1/19/2019 3 AM CST 354.00' 322.00' 68,300
1/19/2019 2 AM CST - 999.00' 322.05' 68,100
1/19/2019 1 AM CST 353.90' 322.00' 68,100

Colorful Bridge
Photo by Shane Dunnaway

In the back of Hematite Lake in LBL are a series of boardwalks and bridges. In autumn, spectacular colors of foliage are scattered throughout, as seen here on this "colorful" bridge.